sensor_id;sensor_type;location;lat;lon;timestamp;P1;durP1;ratioP1;P2;durP2;ratioP2
79036;SDS011;68434;59.896;30.474;2023-06-19T00:01:35;4.57;;;2.83;;
79036;SDS011;68434;59.896;30.474;2023-06-19T00:04:03;4.93;;;2.65;;
79036;SDS011;68434;59.896;30.474;2023-06-19T00:06:31;5.05;;;2.40;;
79036;SDS011;68434;59.896;30.474;2023-06-19T00:08:58;6.57;;;2.90;;
79036;SDS011;68434;59.896;30.474;2023-06-19T00:11:26;5.38;;;2.75;;
79036;SDS011;68434;59.896;30.474;2023-06-19T00:13:54;5.32;;;3.03;;
79036;SDS011;68434;59.896;30.474;2023-06-19T00:16:21;5.55;;;3.00;;
79036;SDS011;68434;59.896;30.474;2023-06-19T00:18:52;5.38;;;2.63;;
79036;SDS011;68434;59.896;30.474;2023-06-19T00:21:21;4.63;;;2.40;;
79036;SDS011;68434;59.896;30.474;2023-06-19T00:23:50;4.35;;;2.38;;
79036;SDS011;68434;59.896;30.474;2023-06-19T00:26:18;3.78;;;2.30;;
79036;SDS011;68434;59.896;30.474;2023-06-19T00:28:48;5.68;;;3.42;;
79036;SDS011;68434;59.896;30.474;2023-06-19T00:31:16;5.72;;;3.47;;
79036;SDS011;68434;59.896;30.474;2023-06-19T00:33:44;6.32;;;3.17;;
79036;SDS011;68434;59.896;30.474;2023-06-19T00:36:15;5.43;;;3.45;;
79036;SDS011;68434;59.896;30.474;2023-06-19T00:38:46;5.55;;;3.33;;
79036;SDS011;68434;59.896;30.474;2023-06-19T00:41:15;7.30;;;3.10;;
79036;SDS011;68434;59.896;30.474;2023-06-19T00:43:43;4.90;;;2.97;;
79036;SDS011;68434;59.896;30.474;2023-06-19T00:46:12;4.00;;;2.65;;
79036;SDS011;68434;59.896;30.474;2023-06-19T00:48:39;6.75;;;4.15;;
79036;SDS011;68434;59.896;30.474;2023-06-19T00:51:07;6.55;;;4.03;;
79036;SDS011;68434;59.896;30.474;2023-06-19T00:53:36;8.55;;;3.88;;
79036;SDS011;68434;59.896;30.474;2023-06-19T00:56:05;9.70;;;5.70;;
79036;SDS011;68434;59.896;30.474;2023-06-19T00:58:32;9.93;;;5.75;;
79036;SDS011;68434;59.896;30.474;2023-06-19T01:01:01;8.30;;;4.10;;
79036;SDS011;68434;59.896;30.474;2023-06-19T01:03:28;6.90;;;3.58;;
79036;SDS011;68434;59.896;30.474;2023-06-19T01:05:56;7.78;;;3.75;;
79036;SDS011;68434;59.896;30.474;2023-06-19T01:08:33;7.15;;;4.00;;
79036;SDS011;68434;59.896;30.474;2023-06-19T01:11:10;5.35;;;3.10;;
79036;SDS011;68434;59.896;30.474;2023-06-19T01:13:44;5.95;;;3.03;;
79036;SDS011;68434;59.896;30.474;2023-06-19T01:16:16;4.30;;;2.78;;
79036;SDS011;68434;59.896;30.474;2023-06-19T01:18:44;5.13;;;2.90;;
79036;SDS011;68434;59.896;30.474;2023-06-19T01:21:14;3.40;;;2.40;;
79036;SDS011;68434;59.896;30.474;2023-06-19T01:23:43;4.50;;;2.70;;
79036;SDS011;68434;59.896;30.474;2023-06-19T01:26:12;4.82;;;2.60;;
79036;SDS011;68434;59.896;30.474;2023-06-19T01:28:40;4.95;;;2.60;;
79036;SDS011;68434;59.896;30.474;2023-06-19T01:31:11;3.78;;;2.40;;
79036;SDS011;68434;59.896;30.474;2023-06-19T01:33:42;4.30;;;2.70;;
79036;SDS011;68434;59.896;30.474;2023-06-19T01:36:14;3.65;;;2.42;;
79036;SDS011;68434;59.896;30.474;2023-06-19T01:38:46;4.45;;;2.40;;
79036;SDS011;68434;59.896;30.474;2023-06-19T01:41:15;3.80;;;2.28;;
79036;SDS011;68434;59.896;30.474;2023-06-19T01:43:44;5.15;;;2.58;;
79036;SDS011;68434;59.896;30.474;2023-06-19T01:46:13;4.93;;;3.15;;
79036;SDS011;68434;59.896;30.474;2023-06-19T01:48:40;4.50;;;2.67;;
79036;SDS011;68434;59.896;30.474;2023-06-19T01:51:08;6.22;;;3.08;;
79036;SDS011;68434;59.896;30.474;2023-06-19T01:53:39;4.30;;;2.75;;
79036;SDS011;68434;59.896;30.474;2023-06-19T01:56:08;4.28;;;2.78;;
79036;SDS011;68434;59.896;30.474;2023-06-19T01:58:35;5.28;;;2.88;;
79036;SDS011;68434;59.896;30.474;2023-06-19T02:01:03;6.43;;;2.80;;
79036;SDS011;68434;59.896;30.474;2023-06-19T02:03:30;5.68;;;2.90;;
79036;SDS011;68434;59.896;30.474;2023-06-19T02:05:58;6.30;;;2.42;;
79036;SDS011;68434;59.896;30.474;2023-06-19T02:08:26;3.60;;;2.28;;
79036;SDS011;68434;59.896;30.474;2023-06-19T02:10:53;3.95;;;2.60;;
79036;SDS011;68434;59.896;30.474;2023-06-19T02:13:24;4.93;;;2.75;;
79036;SDS011;68434;59.896;30.474;2023-06-19T02:15:52;5.63;;;2.55;;
79036;SDS011;68434;59.896;30.474;2023-06-19T02:18:23;4.80;;;2.70;;
79036;SDS011;68434;59.896;30.474;2023-06-19T02:20:51;3.42;;;2.30;;
79036;SDS011;68434;59.896;30.474;2023-06-19T02:23:19;6.45;;;2.80;;
79036;SDS011;68434;59.896;30.474;2023-06-19T02:25:47;4.60;;;2.80;;
79036;SDS011;68434;59.896;30.474;2023-06-19T02:28:17;4.55;;;2.83;;
79036;SDS011;68434;59.896;30.474;2023-06-19T02:30:46;4.80;;;3.00;;
79036;SDS011;68434;59.896;30.474;2023-06-19T02:33:13;7.38;;;2.60;;
79036;SDS011;68434;59.896;30.474;2023-06-19T02:35:41;7.68;;;2.72;;
79036;SDS011;68434;59.896;30.474;2023-06-19T02:38:10;4.80;;;2.47;;
79036;SDS011;68434;59.896;30.474;2023-06-19T02:40:38;5.90;;;3.22;;
79036;SDS011;68434;59.896;30.474;2023-06-19T02:43:06;4.50;;;2.67;;
79036;SDS011;68434;59.896;30.474;2023-06-19T02:45:33;5.18;;;3.17;;
79036;SDS011;68434;59.896;30.474;2023-06-19T02:48:04;4.28;;;2.78;;
79036;SDS011;68434;59.896;30.474;2023-06-19T02:50:32;4.40;;;2.72;;
79036;SDS011;68434;59.896;30.474;2023-06-19T02:53:00;6.07;;;3.50;;
79036;SDS011;68434;59.896;30.474;2023-06-19T02:55:30;6.18;;;3.47;;
79036;SDS011;68434;59.896;30.474;2023-06-19T02:57:57;7.85;;;3.25;;
79036;SDS011;68434;59.896;30.474;2023-06-19T03:00:25;5.65;;;2.80;;
79036;SDS011;68434;59.896;30.474;2023-06-19T03:02:54;4.05;;;2.90;;
79036;SDS011;68434;59.896;30.474;2023-06-19T03:05:23;4.28;;;2.70;;
79036;SDS011;68434;59.896;30.474;2023-06-19T03:07:52;4.78;;;2.80;;
79036;SDS011;68434;59.896;30.474;2023-06-19T03:10:20;5.43;;;2.70;;
79036;SDS011;68434;59.896;30.474;2023-06-19T03:12:48;6.10;;;3.42;;
79036;SDS011;68434;59.896;30.474;2023-06-19T03:15:15;6.60;;;3.10;;
79036;SDS011;68434;59.896;30.474;2023-06-19T03:17:47;7.93;;;2.97;;
79036;SDS011;68434;59.896;30.474;2023-06-19T03:20:14;4.78;;;2.90;;
79036;SDS011;68434;59.896;30.474;2023-06-19T03:25:18;6.53;;;2.53;;
79036;SDS011;68434;59.896;30.474;2023-06-19T03:27:47;4.68;;;2.92;;
79036;SDS011;68434;59.896;30.474;2023-06-19T03:30:15;4.22;;;2.65;;
79036;SDS011;68434;59.896;30.474;2023-06-19T03:32:46;6.78;;;2.90;;
79036;SDS011;68434;59.896;30.474;2023-06-19T03:35:30;6.90;;;2.92;;
79036;SDS011;68434;59.896;30.474;2023-06-19T03:37:59;4.40;;;3.13;;
79036;SDS011;68434;59.896;30.474;2023-06-19T03:40:28;4.00;;;2.58;;
79036;SDS011;68434;59.896;30.474;2023-06-19T03:42:55;4.95;;;2.75;;
79036;SDS011;68434;59.896;30.474;2023-06-19T03:45:27;7.30;;;2.90;;
79036;SDS011;68434;59.896;30.474;2023-06-19T03:47:54;5.60;;;3.10;;
79036;SDS011;68434;59.896;30.474;2023-06-19T03:50:22;5.50;;;3.10;;
79036;SDS011;68434;59.896;30.474;2023-06-19T03:52:50;6.78;;;3.50;;
79036;SDS011;68434;59.896;30.474;2023-06-19T03:55:19;7.88;;;3.10;;
79036;SDS011;68434;59.896;30.474;2023-06-19T03:57:47;5.55;;;3.47;;
79036;SDS011;68434;59.896;30.474;2023-06-19T04:00:15;5.93;;;3.47;;
79036;SDS011;68434;59.896;30.474;2023-06-19T04:02:44;6.65;;;3.38;;
79036;SDS011;68434;59.896;30.474;2023-06-19T04:05:13;4.53;;;2.78;;
79036;SDS011;68434;59.896;30.474;2023-06-19T04:07:41;5.45;;;3.40;;
79036;SDS011;68434;59.896;30.474;2023-06-19T04:10:09;3.90;;;2.97;;
79036;SDS011;68434;59.896;30.474;2023-06-19T04:12:39;4.45;;;2.97;;
79036;SDS011;68434;59.896;30.474;2023-06-19T04:15:07;5.57;;;3.50;;
79036;SDS011;68434;59.896;30.474;2023-06-19T04:17:35;4.82;;;2.90;;
79036;SDS011;68434;59.896;30.474;2023-06-19T04:20:04;4.05;;;2.78;;
79036;SDS011;68434;59.896;30.474;2023-06-19T04:22:36;6.40;;;3.53;;
79036;SDS011;68434;59.896;30.474;2023-06-19T04:25:05;7.35;;;4.78;;
79036;SDS011;68434;59.896;30.474;2023-06-19T04:27:34;7.63;;;3.97;;
79036;SDS011;68434;59.896;30.474;2023-06-19T04:30:04;8.73;;;4.90;;
79036;SDS011;68434;59.896;30.474;2023-06-19T04:32:35;9.07;;;4.45;;
79036;SDS011;68434;59.896;30.474;2023-06-19T04:35:06;6.95;;;4.50;;
79036;SDS011;68434;59.896;30.474;2023-06-19T04:37:34;7.43;;;3.63;;
79036;SDS011;68434;59.896;30.474;2023-06-19T04:40:03;5.10;;;3.60;;
79036;SDS011;68434;59.896;30.474;2023-06-19T04:42:32;5.15;;;3.47;;
79036;SDS011;68434;59.896;30.474;2023-06-19T04:45:00;5.43;;;3.38;;
79036;SDS011;68434;59.896;30.474;2023-06-19T04:47:32;9.85;;;2.92;;
79036;SDS011;68434;59.896;30.474;2023-06-19T04:50:18;4.53;;;3.10;;
79036;SDS011;68434;59.896;30.474;2023-06-19T04:53:04;6.47;;;3.10;;
79036;SDS011;68434;59.896;30.474;2023-06-19T04:55:32;7.03;;;4.63;;
79036;SDS011;68434;59.896;30.474;2023-06-19T04:58:00;6.43;;;3.42;;
79036;SDS011;68434;59.896;30.474;2023-06-19T05:00:28;8.23;;;4.10;;
79036;SDS011;68434;59.896;30.474;2023-06-19T05:02:57;4.93;;;2.85;;
79036;SDS011;68434;59.896;30.474;2023-06-19T05:05:26;4.95;;;2.50;;
79036;SDS011;68434;59.896;30.474;2023-06-19T05:07:54;5.72;;;2.53;;
79036;SDS011;68434;59.896;30.474;2023-06-19T05:10:40;6.43;;;3.05;;
79036;SDS011;68434;59.896;30.474;2023-06-19T05:13:08;5.13;;;3.70;;
79036;SDS011;68434;59.896;30.474;2023-06-19T05:15:35;5.05;;;3.35;;
79036;SDS011;68434;59.896;30.474;2023-06-19T05:18:04;5.15;;;2.92;;
79036;SDS011;68434;59.896;30.474;2023-06-19T05:20:32;5.30;;;3.05;;
79036;SDS011;68434;59.896;30.474;2023-06-19T05:22:59;8.75;;;4.05;;
79036;SDS011;68434;59.896;30.474;2023-06-19T05:25:27;7.68;;;4.63;;
79036;SDS011;68434;59.896;30.474;2023-06-19T05:27:55;7.97;;;3.85;;
79036;SDS011;68434;59.896;30.474;2023-06-19T05:30:22;6.55;;;3.28;;
79036;SDS011;68434;59.896;30.474;2023-06-19T05:32:50;7.60;;;3.45;;
79036;SDS011;68434;59.896;30.474;2023-06-19T05:35:19;5.63;;;3.50;;
79036;SDS011;68434;59.896;30.474;2023-06-19T05:37:46;9.73;;;4.90;;
79036;SDS011;68434;59.896;30.474;2023-06-19T05:40:15;6.43;;;3.80;;
79036;SDS011;68434;59.896;30.474;2023-06-19T05:42:44;5.50;;;2.90;;
79036;SDS011;68434;59.896;30.474;2023-06-19T05:45:12;9.45;;;3.33;;
79036;SDS011;68434;59.896;30.474;2023-06-19T05:47:39;6.13;;;3.08;;
79036;SDS011;68434;59.896;30.474;2023-06-19T05:50:07;8.55;;;3.40;;
79036;SDS011;68434;59.896;30.474;2023-06-19T05:52:36;6.80;;;3.38;;
79036;SDS011;68434;59.896;30.474;2023-06-19T05:55:07;4.35;;;2.53;;
79036;SDS011;68434;59.896;30.474;2023-06-19T05:57:35;6.15;;;3.10;;
79036;SDS011;68434;59.896;30.474;2023-06-19T06:00:03;6.22;;;2.95;;
79036;SDS011;68434;59.896;30.474;2023-06-19T06:02:49;5.40;;;3.00;;
79036;SDS011;68434;59.896;30.474;2023-06-19T06:05:35;5.38;;;2.78;;
79036;SDS011;68434;59.896;30.474;2023-06-19T06:08:04;7.65;;;3.88;;
79036;SDS011;68434;59.896;30.474;2023-06-19T06:10:32;4.63;;;2.70;;
79036;SDS011;68434;59.896;30.474;2023-06-19T06:13:17;5.07;;;3.03;;
79036;SDS011;68434;59.896;30.474;2023-06-19T06:15:45;4.63;;;2.65;;
79036;SDS011;68434;59.896;30.474;2023-06-19T06:20:58;5.38;;;2.88;;
79036;SDS011;68434;59.896;30.474;2023-06-19T06:23:28;8.55;;;3.17;;
79036;SDS011;68434;59.896;30.474;2023-06-19T06:25:55;4.00;;;2.78;;
79036;SDS011;68434;59.896;30.474;2023-06-19T06:28:28;6.32;;;2.53;;
79036;SDS011;68434;59.896;30.474;2023-06-19T06:30:57;6.68;;;2.60;;
79036;SDS011;68434;59.896;30.474;2023-06-19T06:33:25;4.00;;;2.72;;
79036;SDS011;68434;59.896;30.474;2023-06-19T06:35:54;6.60;;;3.22;;
79036;SDS011;68434;59.896;30.474;2023-06-19T06:38:22;7.05;;;3.47;;
79036;SDS011;68434;59.896;30.474;2023-06-19T06:40:51;4.25;;;2.90;;
79036;SDS011;68434;59.896;30.474;2023-06-19T06:43:36;5.93;;;2.95;;
79036;SDS011;68434;59.896;30.474;2023-06-19T06:48:50;9.25;;;4.88;;
79036;SDS011;68434;59.896;30.474;2023-06-19T06:51:36;5.68;;;3.17;;
79036;SDS011;68434;59.896;30.474;2023-06-19T06:57:08;5.30;;;2.58;;
79036;SDS011;68434;59.896;30.474;2023-06-19T06:59:36;2.58;;;1.73;;
79036;SDS011;68434;59.896;30.474;2023-06-19T07:02:03;4.05;;;2.10;;
79036;SDS011;68434;59.896;30.474;2023-06-19T07:04:50;4.72;;;1.90;;
79036;SDS011;68434;59.896;30.474;2023-06-19T07:07:18;4.30;;;2.55;;
79036;SDS011;68434;59.896;30.474;2023-06-19T07:09:45;3.15;;;2.05;;
79036;SDS011;68434;59.896;30.474;2023-06-19T07:12:17;2.92;;;1.90;;
79036;SDS011;68434;59.896;30.474;2023-06-19T07:14:44;5.32;;;2.47;;
79036;SDS011;68434;59.896;30.474;2023-06-19T07:17:12;5.88;;;2.30;;
79036;SDS011;68434;59.896;30.474;2023-06-19T07:19:39;9.55;;;2.05;;
79036;SDS011;68434;59.896;30.474;2023-06-19T07:22:08;2.83;;;1.85;;
79036;SDS011;68434;59.896;30.474;2023-06-19T07:24:36;4.72;;;2.30;;
79036;SDS011;68434;59.896;30.474;2023-06-19T07:27:03;4.03;;;2.25;;
79036;SDS011;68434;59.896;30.474;2023-06-19T07:32:00;3.53;;;2.20;;
79036;SDS011;68434;59.896;30.474;2023-06-19T07:34:29;2.80;;;1.90;;
79036;SDS011;68434;59.896;30.474;2023-06-19T07:36:57;4.20;;;1.90;;
79036;SDS011;68434;59.896;30.474;2023-06-19T07:39:25;3.00;;;1.88;;
79036;SDS011;68434;59.896;30.474;2023-06-19T07:41:52;2.75;;;1.70;;
79036;SDS011;68434;59.896;30.474;2023-06-19T07:44:20;2.83;;;1.70;;
79036;SDS011;68434;59.896;30.474;2023-06-19T07:46:49;5.38;;;1.75;;
79036;SDS011;68434;59.896;30.474;2023-06-19T07:49:16;3.70;;;1.85;;
79036;SDS011;68434;59.896;30.474;2023-06-19T07:51:44;2.78;;;1.80;;
79036;SDS011;68434;59.896;30.474;2023-06-19T07:54:11;3.03;;;1.80;;
79036;SDS011;68434;59.896;30.474;2023-06-19T07:56:39;4.43;;;2.10;;
79036;SDS011;68434;59.896;30.474;2023-06-19T07:59:07;3.78;;;2.05;;
79036;SDS011;68434;59.896;30.474;2023-06-19T08:01:35;3.70;;;2.22;;
79036;SDS011;68434;59.896;30.474;2023-06-19T08:04:04;3.00;;;1.90;;
79036;SDS011;68434;59.896;30.474;2023-06-19T08:06:32;2.33;;;1.73;;
79036;SDS011;68434;59.896;30.474;2023-06-19T08:08:59;2.85;;;1.75;;
79036;SDS011;68434;59.896;30.474;2023-06-19T08:11:27;2.67;;;1.80;;
79036;SDS011;68434;59.896;30.474;2023-06-19T08:13:55;3.47;;;1.88;;
79036;SDS011;68434;59.896;30.474;2023-06-19T08:16:24;5.20;;;2.38;;
79036;SDS011;68434;59.896;30.474;2023-06-19T08:18:53;3.80;;;1.98;;
79036;SDS011;68434;59.896;30.474;2023-06-19T08:21:22;4.00;;;2.10;;
79036;SDS011;68434;59.896;30.474;2023-06-19T08:23:50;2.90;;;2.10;;
79036;SDS011;68434;59.896;30.474;2023-06-19T08:26:17;2.60;;;1.67;;
79036;SDS011;68434;59.896;30.474;2023-06-19T08:29:40;4.53;;;2.38;;
79036;SDS011;68434;59.896;30.474;2023-06-19T08:35:14;5.05;;;2.13;;
79036;SDS011;68434;59.896;30.474;2023-06-19T08:37:43;3.72;;;2.17;;
79036;SDS011;68434;59.896;30.474;2023-06-19T08:40:11;3.88;;;1.75;;
79036;SDS011;68434;59.896;30.474;2023-06-19T08:42:58;2.78;;;1.85;;
79036;SDS011;68434;59.896;30.474;2023-06-19T08:45:26;3.08;;;2.08;;
79036;SDS011;68434;59.896;30.474;2023-06-19T08:47:57;3.22;;;2.20;;
79036;SDS011;68434;59.896;30.474;2023-06-19T08:50:42;2.70;;;1.73;;
79036;SDS011;68434;59.896;30.474;2023-06-19T08:53:12;3.20;;;1.98;;
79036;SDS011;68434;59.896;30.474;2023-06-19T08:55:40;3.33;;;2.00;;
79036;SDS011;68434;59.896;30.474;2023-06-19T08:58:09;3.33;;;1.80;;
79036;SDS011;68434;59.896;30.474;2023-06-19T09:00:57;3.20;;;1.80;;
79036;SDS011;68434;59.896;30.474;2023-06-19T09:03:24;3.30;;;2.00;;
79036;SDS011;68434;59.896;30.474;2023-06-19T09:06:14;2.50;;;1.60;;
79036;SDS011;68434;59.896;30.474;2023-06-19T09:09:00;3.28;;;1.92;;
79036;SDS011;68434;59.896;30.474;2023-06-19T09:11:56;3.83;;;2.28;;
79036;SDS011;68434;59.896;30.474;2023-06-19T09:14:51;2.47;;;1.45;;
79036;SDS011;68434;59.896;30.474;2023-06-19T09:17:20;3.53;;;2.15;;
79036;SDS011;68434;59.896;30.474;2023-06-19T09:19:53;2.60;;;1.80;;
79036;SDS011;68434;59.896;30.474;2023-06-19T09:22:58;2.63;;;1.70;;
79036;SDS011;68434;59.896;30.474;2023-06-19T09:25:27;3.72;;;1.55;;
79036;SDS011;68434;59.896;30.474;2023-06-19T09:28:16;2.92;;;2.17;;
79036;SDS011;68434;59.896;30.474;2023-06-19T09:33:31;3.95;;;2.33;;
79036;SDS011;68434;59.896;30.474;2023-06-19T09:36:00;2.67;;;1.75;;
79036;SDS011;68434;59.896;30.474;2023-06-19T09:38:30;2.83;;;1.63;;
79036;SDS011;68434;59.896;30.474;2023-06-19T09:41:01;2.72;;;1.98;;
79036;SDS011;68434;59.896;30.474;2023-06-19T09:43:48;3.25;;;1.90;;
79036;SDS011;68434;59.896;30.474;2023-06-19T09:46:19;3.00;;;2.00;;
79036;SDS011;68434;59.896;30.474;2023-06-19T09:48:48;2.92;;;1.83;;
79036;SDS011;68434;59.896;30.474;2023-06-19T09:51:21;2.88;;;2.00;;
79036;SDS011;68434;59.896;30.474;2023-06-19T09:53:56;4.35;;;2.20;;
79036;SDS011;68434;59.896;30.474;2023-06-19T09:56:26;2.88;;;1.80;;
79036;SDS011;68434;59.896;30.474;2023-06-19T09:58:56;3.28;;;2.13;;
79036;SDS011;68434;59.896;30.474;2023-06-19T10:01:26;3.25;;;1.63;;
79036;SDS011;68434;59.896;30.474;2023-06-19T10:04:01;3.17;;;1.80;;
79036;SDS011;68434;59.896;30.474;2023-06-19T10:06:30;2.50;;;1.70;;
79036;SDS011;68434;59.896;30.474;2023-06-19T10:09:05;3.97;;;1.52;;
79036;SDS011;68434;59.896;30.474;2023-06-19T10:11:54;2.50;;;1.70;;
79036;SDS011;68434;59.896;30.474;2023-06-19T10:15:06;4.13;;;2.30;;
79036;SDS011;68434;59.896;30.474;2023-06-19T10:17:35;4.72;;;2.80;;
79036;SDS011;68434;59.896;30.474;2023-06-19T10:22:51;2.97;;;1.85;;
79036;SDS011;68434;59.896;30.474;2023-06-19T10:25:20;2.70;;;1.70;;
79036;SDS011;68434;59.896;30.474;2023-06-19T10:30:45;8.80;;;6.57;;
79036;SDS011;68434;59.896;30.474;2023-06-19T10:33:20;4.15;;;2.83;;
79036;SDS011;68434;59.896;30.474;2023-06-19T10:38:42;4.38;;;2.30;;
79036;SDS011;68434;59.896;30.474;2023-06-19T10:41:17;4.93;;;2.08;;
79036;SDS011;68434;59.896;30.474;2023-06-19T10:44:03;4.95;;;2.40;;
79036;SDS011;68434;59.896;30.474;2023-06-19T10:46:35;3.05;;;2.20;;
79036;SDS011;68434;59.896;30.474;2023-06-19T10:49:03;2.92;;;2.10;;
79036;SDS011;68434;59.896;30.474;2023-06-19T10:51:33;3.25;;;1.90;;
79036;SDS011;68434;59.896;30.474;2023-06-19T10:54:02;3.20;;;1.50;;
79036;SDS011;68434;59.896;30.474;2023-06-19T10:56:31;2.85;;;1.80;;
79036;SDS011;68434;59.896;30.474;2023-06-19T10:59:18;3.75;;;1.90;;
79036;SDS011;68434;59.896;30.474;2023-06-19T11:07:20;4.88;;;2.10;;
79036;SDS011;68434;59.896;30.474;2023-06-19T11:09:50;3.17;;;2.00;;
79036;SDS011;68434;59.896;30.474;2023-06-19T11:12:18;4.72;;;2.40;;
79036;SDS011;68434;59.896;30.474;2023-06-19T11:14:48;3.70;;;2.20;;
79036;SDS011;68434;59.896;30.474;2023-06-19T11:17:17;4.38;;;2.60;;
79036;SDS011;68434;59.896;30.474;2023-06-19T11:19:47;4.35;;;2.70;;
79036;SDS011;68434;59.896;30.474;2023-06-19T11:22:36;4.40;;;3.08;;
79036;SDS011;68434;59.896;30.474;2023-06-19T11:25:06;4.30;;;3.05;;
79036;SDS011;68434;59.896;30.474;2023-06-19T11:27:36;4.32;;;3.00;;
79036;SDS011;68434;59.896;30.474;2023-06-19T11:30:10;3.40;;;2.20;;
79036;SDS011;68434;59.896;30.474;2023-06-19T11:32:38;3.78;;;2.30;;
79036;SDS011;68434;59.896;30.474;2023-06-19T11:35:32;4.93;;;2.58;;
79036;SDS011;68434;59.896;30.474;2023-06-19T11:38:05;4.00;;;2.92;;
79036;SDS011;68434;59.896;30.474;2023-06-19T11:40:53;3.83;;;2.45;;
79036;SDS011;68434;59.896;30.474;2023-06-19T11:46:13;5.85;;;2.42;;
79036;SDS011;68434;59.896;30.474;2023-06-19T11:49:09;3.00;;;2.20;;
79036;SDS011;68434;59.896;30.474;2023-06-19T11:55:01;3.80;;;2.20;;
79036;SDS011;68434;59.896;30.474;2023-06-19T11:57:47;3.25;;;2.10;;
79036;SDS011;68434;59.896;30.474;2023-06-19T12:00:15;3.20;;;2.15;;
79036;SDS011;68434;59.896;30.474;2023-06-19T12:03:21;3.78;;;2.10;;
79036;SDS011;68434;59.896;30.474;2023-06-19T12:05:49;4.28;;;2.10;;
79036;SDS011;68434;59.896;30.474;2023-06-19T12:11:03;3.25;;;2.00;;
79036;SDS011;68434;59.896;30.474;2023-06-19T12:13:52;3.13;;;1.85;;
79036;SDS011;68434;59.896;30.474;2023-06-19T12:16:21;3.72;;;2.20;;
79036;SDS011;68434;59.896;30.474;2023-06-19T12:18:52;3.47;;;2.17;;
79036;SDS011;68434;59.896;30.474;2023-06-19T12:21:22;3.20;;;1.98;;
79036;SDS011;68434;59.896;30.474;2023-06-19T12:24:07;3.55;;;2.20;;
79036;SDS011;68434;59.896;30.474;2023-06-19T12:26:34;3.60;;;2.45;;
79036;SDS011;68434;59.896;30.474;2023-06-19T12:29:03;5.20;;;2.40;;
79036;SDS011;68434;59.896;30.474;2023-06-19T12:37:42;4.60;;;2.05;;
79036;SDS011;68434;59.896;30.474;2023-06-19T12:40:11;3.20;;;1.83;;
79036;SDS011;68434;59.896;30.474;2023-06-19T12:42:39;3.45;;;2.10;;
79036;SDS011;68434;59.896;30.474;2023-06-19T12:45:08;7.53;;;2.00;;
79036;SDS011;68434;59.896;30.474;2023-06-19T12:47:55;2.83;;;1.90;;
79036;SDS011;68434;59.896;30.474;2023-06-19T12:50:42;3.25;;;2.20;;
79036;SDS011;68434;59.896;30.474;2023-06-19T12:53:11;3.55;;;2.33;;
79036;SDS011;68434;59.896;30.474;2023-06-19T12:55:38;5.10;;;2.00;;
79036;SDS011;68434;59.896;30.474;2023-06-19T12:58:06;4.10;;;2.30;;
79036;SDS011;68434;59.896;30.474;2023-06-19T13:00:34;4.03;;;1.77;;
79036;SDS011;68434;59.896;30.474;2023-06-19T13:03:03;3.15;;;2.05;;
79036;SDS011;68434;59.896;30.474;2023-06-19T13:05:33;2.83;;;2.20;;
79036;SDS011;68434;59.896;30.474;2023-06-19T13:08:02;3.50;;;1.95;;
79036;SDS011;68434;59.896;30.474;2023-06-19T13:10:31;4.07;;;2.13;;
79036;SDS011;68434;59.896;30.474;2023-06-19T13:12:59;3.00;;;2.10;;
79036;SDS011;68434;59.896;30.474;2023-06-19T13:15:28;4.45;;;2.15;;
79036;SDS011;68434;59.896;30.474;2023-06-19T13:17:56;4.57;;;1.95;;
79036;SDS011;68434;59.896;30.474;2023-06-19T13:20:42;3.25;;;2.10;;
79036;SDS011;68434;59.896;30.474;2023-06-19T13:26:16;3.53;;;1.90;;
79036;SDS011;68434;59.896;30.474;2023-06-19T13:28:45;5.03;;;2.20;;
79036;SDS011;68434;59.896;30.474;2023-06-19T13:31:31;4.15;;;2.42;;
79036;SDS011;68434;59.896;30.474;2023-06-19T13:34:00;3.30;;;2.40;;
79036;SDS011;68434;59.896;30.474;2023-06-19T13:36:46;3.45;;;2.20;;
79036;SDS011;68434;59.896;30.474;2023-06-19T13:39:16;2.50;;;1.73;;
79036;SDS011;68434;59.896;30.474;2023-06-19T13:42:01;4.55;;;2.13;;
79036;SDS011;68434;59.896;30.474;2023-06-19T13:49:43;5.43;;;2.20;;
79036;SDS011;68434;59.896;30.474;2023-06-19T13:52:15;3.60;;;2.20;;
79036;SDS011;68434;59.896;30.474;2023-06-19T13:55:06;6.82;;;3.95;;
79036;SDS011;68434;59.896;30.474;2023-06-19T13:57:34;3.63;;;2.35;;
79036;SDS011;68434;59.896;30.474;2023-06-19T14:00:03;4.28;;;2.80;;
79036;SDS011;68434;59.896;30.474;2023-06-19T14:02:39;2.90;;;2.20;;
79036;SDS011;68434;59.896;30.474;2023-06-19T14:05:07;5.75;;;2.95;;
79036;SDS011;68434;59.896;30.474;2023-06-19T14:07:36;4.57;;;2.80;;
79036;SDS011;68434;59.896;30.474;2023-06-19T14:13:09;5.18;;;2.78;;
79036;SDS011;68434;59.896;30.474;2023-06-19T14:15:37;2.70;;;2.20;;
79036;SDS011;68434;59.896;30.474;2023-06-19T14:18:05;5.95;;;3.83;;
79036;SDS011;68434;59.896;30.474;2023-06-19T14:20:33;4.72;;;3.70;;
79036;SDS011;68434;59.896;30.474;2023-06-19T14:23:01;5.13;;;2.95;;
79036;SDS011;68434;59.896;30.474;2023-06-19T14:25:31;4.22;;;2.65;;
79036;SDS011;68434;59.896;30.474;2023-06-19T14:27:59;3.97;;;3.00;;
79036;SDS011;68434;59.896;30.474;2023-06-19T14:30:27;5.07;;;2.95;;
79036;SDS011;68434;59.896;30.474;2023-06-19T14:32:55;4.10;;;2.80;;
79036;SDS011;68434;59.896;30.474;2023-06-19T14:35:22;4.35;;;2.55;;
79036;SDS011;68434;59.896;30.474;2023-06-19T14:38:11;6.75;;;2.85;;
79036;SDS011;68434;59.896;30.474;2023-06-19T14:40:41;5.50;;;2.88;;
79036;SDS011;68434;59.896;30.474;2023-06-19T14:43:11;6.55;;;3.65;;
79036;SDS011;68434;59.896;30.474;2023-06-19T14:45:39;5.57;;;3.00;;
79036;SDS011;68434;59.896;30.474;2023-06-19T14:48:08;4.53;;;2.75;;
79036;SDS011;68434;59.896;30.474;2023-06-19T14:50:53;4.72;;;2.83;;
79036;SDS011;68434;59.896;30.474;2023-06-19T14:56:12;3.92;;;2.65;;
79036;SDS011;68434;59.896;30.474;2023-06-19T14:58:40;4.18;;;2.85;;
79036;SDS011;68434;59.896;30.474;2023-06-19T15:01:09;3.30;;;2.35;;
79036;SDS011;68434;59.896;30.474;2023-06-19T15:06:24;4.07;;;2.55;;
79036;SDS011;68434;59.896;30.474;2023-06-19T15:08:53;3.85;;;2.70;;
79036;SDS011;68434;59.896;30.474;2023-06-19T15:11:26;4.22;;;2.63;;
79036;SDS011;68434;59.896;30.474;2023-06-19T15:13:54;4.28;;;2.63;;
79036;SDS011;68434;59.896;30.474;2023-06-19T15:16:22;3.13;;;2.10;;
79036;SDS011;68434;59.896;30.474;2023-06-19T15:18:52;3.63;;;2.17;;
79036;SDS011;68434;59.896;30.474;2023-06-19T15:21:22;3.28;;;1.83;;
79036;SDS011;68434;59.896;30.474;2023-06-19T15:27:35;5.03;;;2.42;;
79036;SDS011;68434;59.896;30.474;2023-06-19T15:30:04;6.47;;;3.47;;
79036;SDS011;68434;59.896;30.474;2023-06-19T15:32:33;6.80;;;3.08;;
79036;SDS011;68434;59.896;30.474;2023-06-19T15:35:18;4.05;;;2.70;;
79036;SDS011;68434;59.896;30.474;2023-06-19T15:41:12;3.28;;;2.65;;
79036;SDS011;68434;59.896;30.474;2023-06-19T15:46:36;3.38;;;2.15;;
79036;SDS011;68434;59.896;30.474;2023-06-19T15:49:04;3.40;;;2.63;;
79036;SDS011;68434;59.896;30.474;2023-06-19T15:51:51;6.15;;;2.90;;
79036;SDS011;68434;59.896;30.474;2023-06-19T15:54:36;4.95;;;3.20;;
79036;SDS011;68434;59.896;30.474;2023-06-19T15:57:22;4.32;;;3.20;;
79036;SDS011;68434;59.896;30.474;2023-06-19T16:00:08;5.50;;;3.35;;
79036;SDS011;68434;59.896;30.474;2023-06-19T16:02:46;3.63;;;2.50;;
79036;SDS011;68434;59.896;30.474;2023-06-19T16:05:30;5.90;;;3.78;;
79036;SDS011;68434;59.896;30.474;2023-06-19T16:10:25;5.25;;;3.03;;
79036;SDS011;68434;59.896;30.474;2023-06-19T16:12:54;3.70;;;2.67;;
79036;SDS011;68434;59.896;30.474;2023-06-19T16:15:32;4.68;;;2.80;;
79036;SDS011;68434;59.896;30.474;2023-06-19T16:18:00;3.90;;;2.50;;